createdAt,value
2022-11-28T00:06:52.969Z,13.50
2022-11-28T00:21:53.709Z,12.90
2022-11-28T00:36:54.729Z,12.50
2022-11-28T00:51:55.004Z,12.80
2022-11-28T01:06:55.623Z,13.00
2022-11-28T01:21:55.844Z,15.20
2022-11-28T01:36:56.353Z,16.40
2022-11-28T01:51:57.765Z,14.60
2022-11-28T02:06:58.759Z,14.60
2022-11-28T02:21:59.488Z,13.40
2022-11-28T02:36:59.629Z,10.80
2022-11-28T02:51:59.843Z,12.90
2022-11-28T03:07:00.447Z,13.10
2022-11-28T03:22:02.251Z,12.90
2022-11-28T03:37:04.538Z,13.70
2022-11-28T03:52:06.383Z,13.10
2022-11-28T04:07:07.127Z,14.40
2022-11-28T04:22:09.060Z,15.00
2022-11-28T04:37:10.079Z,13.40
2022-11-28T04:52:10.414Z,15.10
2022-11-28T05:07:11.420Z,14.10
2022-11-28T05:22:11.623Z,14.10
2022-11-28T05:37:12.653Z,12.80
2022-11-28T05:52:12.826Z,14.40
2022-11-28T06:07:14.740Z,12.10
2022-11-28T06:22:15.800Z,12.20
2022-11-28T06:37:17.181Z,12.80
2022-11-28T06:52:18.887Z,15.10
2022-11-28T07:07:20.665Z,15.30
2022-11-28T07:22:20.921Z,18.30
2022-11-28T07:37:22.099Z,18.00
2022-11-28T07:52:24.571Z,17.80
2022-11-28T08:07:25.498Z,18.20
2022-11-28T08:22:25.297Z,19.60
2022-11-28T08:37:25.878Z,19.50
2022-11-28T08:52:25.504Z,19.60
2022-11-28T09:07:25.618Z,18.60
2022-11-28T09:22:25.727Z,17.90
2022-11-28T09:37:26.879Z,17.50
2022-11-28T09:52:28.084Z,15.50
2022-11-28T10:07:29.123Z,16.40
2022-11-28T10:22:30.188Z,15.30
2022-11-28T10:37:32.039Z,16.00
2022-11-28T10:52:32.659Z,15.10
2022-11-28T11:07:33.901Z,16.30
2022-11-28T11:22:34.928Z,15.70
2022-11-28T11:37:35.017Z,15.60
2022-11-28T11:52:35.664Z,15.10
2022-11-28T12:07:36.381Z,15.90
2022-11-28T12:22:36.988Z,15.60
2022-11-28T12:38:09.059Z,15.20
2022-11-28T12:52:42.652Z,14.60
2022-11-28T13:07:42.826Z,15.10
2022-11-28T13:22:42.976Z,18.80
2022-11-28T13:52:48.687Z,18.20
2022-11-28T14:07:49.694Z,18.80
2022-11-28T14:22:50.792Z,17.90
2022-11-28T14:37:50.436Z,21.00
2022-11-28T14:52:51.637Z,22.60
2022-11-28T15:07:52.202Z,21.40
2022-11-28T15:22:52.506Z,22.00
2022-11-28T15:37:53.033Z,21.60
2022-11-28T15:52:52.884Z,21.90
2022-11-28T16:07:52.957Z,22.00
2022-11-28T16:22:52.996Z,21.80
2022-11-28T16:37:53.660Z,21.90
2022-11-28T16:52:55.674Z,22.30
2022-11-28T17:07:58.023Z,24.10
2022-11-28T17:23:00.271Z,23.00
2022-11-28T17:38:01.341Z,24.90
2022-11-28T17:53:02.642Z,27.00
2022-11-28T18:08:04.648Z,28.70
2022-11-28T18:23:04.736Z,27.10
2022-11-28T18:38:05.003Z,28.40
2022-11-28T18:53:05.559Z,29.90
2022-11-28T19:08:05.833Z,30.50
2022-11-28T19:23:06.611Z,30.70
2022-11-28T19:38:08.310Z,30.30
2022-11-28T19:53:10.790Z,30.80
2022-11-28T20:08:12.329Z,31.80
2022-11-28T20:23:13.276Z,32.80
2022-11-28T20:38:15.710Z,31.30
2022-11-28T20:53:22.180Z,32.00
2022-11-28T21:08:23.828Z,31.00
2022-11-28T21:23:24.939Z,28.70
2022-11-28T21:38:25.079Z,30.20
2022-11-28T21:53:26.248Z,30.30
2022-11-28T22:08:27.824Z,29.60
2022-11-28T22:23:27.944Z,28.60
2022-11-28T22:38:28.058Z,31.30
2022-11-28T22:53:28.713Z,28.60
2022-11-28T23:08:29.315Z,28.00
2022-11-28T23:23:30.042Z,27.80
2022-11-28T23:38:30.693Z,27.60
2022-11-28T23:53:30.688Z,25.80
